Hovedside
METAR-TAF:

METAR-TAF

Lufthavner :

Flystasjon

Ämari, Estland

breddegrad: 59-15-44N, lengdegrad: 24-13-07E, høyde over havet: 20 m

Gjeldene værobservasjon

Denne rapporten ble laget for 5 timer og 23 minutter siden, klokken 13:50 UTC
Vind 3 kt fra skiftende retning
Temperatur 20°C
Luftfuktighet 30%
Trykk 1026 hPa
Sikt 10 km eller mer
ingen skyer under 1500 m og ingen bygeskyer

METAR: EEEI 201350Z VRB03KT CAVOK 20/02 Q1026 NOSIG

Tid: 22:13 (19:13 UTC)

Varsel

Denne rapporten ble laget for 1 time og 43 minutter siden, klokken 17:30 UTC
Varsel gyldig fra 20. klokken 18 UTC til 21. klokken 18 UTC
Vind 2 kt fra skiftende retning
Sikt 10 km eller mer
ingen skyer under 1500 m og ingen bygeskyer
Blir
fra 21. klokken 06 UTC til 21. klokken 08 UTC
Vind 10 kt fra Vest-nordvest
Blir
fra 21. klokken 16 UTC til 21. klokken 18 UTC
Vind 2 kt fra skiftende retning

TAF: EEEI 201730Z 2018/2118 VRB02KT CAVOK BECMG 2106/2108 30010KT BECMG 2116/2118 VRB02KT

Værobservasjoner og værvarsel for over 4000 flyplasser (METAR- og TAF-rapporter).

Tilgjengelige stasjoner er representert av de røde og gule prikkene på kartet.

Hold musepekeren over prikken for å se navnet på stasjonen.

Klikk så for å se værobservasjoner og -varsler.

For å forandre kartet kan du klikke på den grønne knappen med svart kryss for å zoome inn, på den grønne knappen med strek for å zoome ut, eller på de grønne pilene for å se tilstøtende kart.


METAR-TAF: